sensor_id;sensor_type;location;lat;lon;timestamp;pressure;altitude;pressure_sealevel;temperature;humidity
77299;BME280;66361;52.034;20.656;2023-05-10T00:02:51;100402.25;;;6.52;60.36
77299;BME280;66361;52.034;20.656;2023-05-10T00:06:54;100397.81;;;6.54;60.18
77299;BME280;66361;52.034;20.656;2023-05-10T00:10:57;100399.53;;;6.55;60.32
77299;BME280;66361;52.034;20.656;2023-05-10T00:15:00;100389.06;;;6.33;60.83
77299;BME280;66361;52.034;20.656;2023-05-10T00:19:04;100393.91;;;6.22;61.84
77299;BME280;66361;52.034;20.656;2023-05-10T00:23:07;100387.63;;;6.26;61.82
77299;BME280;66361;52.034;20.656;2023-05-10T00:27:10;100378.50;;;6.14;61.85
77299;BME280;66361;52.034;20.656;2023-05-10T00:31:13;100384.25;;;6.02;62.38
77299;BME280;66361;52.034;20.656;2023-05-10T00:35:17;100377.75;;;5.91;62.85
77299;BME280;66361;52.034;20.656;2023-05-10T00:39:20;100382.72;;;5.75;63.71
77299;BME280;66361;52.034;20.656;2023-05-10T00:43:23;100386.56;;;5.66;64.37
77299;BME280;66361;52.034;20.656;2023-05-10T00:47:27;100387.84;;;5.56;65.10
77299;BME280;66361;52.034;20.656;2023-05-10T00:51:31;100384.97;;;5.62;65.16
77299;BME280;66361;52.034;20.656;2023-05-10T00:55:34;100379.97;;;5.56;65.28
77299;BME280;66361;52.034;20.656;2023-05-10T00:59:37;100379.38;;;5.50;66.12
77299;BME280;66361;52.034;20.656;2023-05-10T01:03:40;100374.53;;;5.39;66.02
77299;BME280;66361;52.034;20.656;2023-05-10T01:07:45;100374.47;;;5.41;66.63
77299;BME280;66361;52.034;20.656;2023-05-10T01:11:49;100372.56;;;5.22;67.94
77299;BME280;66361;52.034;20.656;2023-05-10T01:15:52;100367.25;;;5.24;68.00
77299;BME280;66361;52.034;20.656;2023-05-10T01:19:55;100361.03;;;5.05;68.39
77299;BME280;66361;52.034;20.656;2023-05-10T01:28:54;100368.41;;;4.94;69.13
77299;BME280;66361;52.034;20.656;2023-05-10T01:33:09;100371.50;;;4.80;70.61
77299;BME280;66361;52.034;20.656;2023-05-10T01:37:19;100362.22;;;4.71;70.47
77299;BME280;66361;52.034;20.656;2023-05-10T01:41:28;100366.81;;;4.65;71.16
77299;BME280;66361;52.034;20.656;2023-05-10T01:45:33;100368.47;;;4.43;72.41
77299;BME280;66361;52.034;20.656;2023-05-10T01:49:43;100371.84;;;4.20;74.82
77299;BME280;66361;52.034;20.656;2023-05-10T01:53:48;100359.25;;;4.06;74.75
77299;BME280;66361;52.034;20.656;2023-05-10T01:57:56;100363.16;;;3.93;76.22
77299;BME280;66361;52.034;20.656;2023-05-10T02:02:04;100352.56;;;3.71;77.80
77299;BME280;66361;52.034;20.656;2023-05-10T02:06:10;100355.84;;;3.50;77.46
77299;BME280;66361;52.034;20.656;2023-05-10T02:10:15;100362.44;;;3.34;81.18
77299;BME280;66361;52.034;20.656;2023-05-10T02:14:20;100360.94;;;3.25;80.17
77299;BME280;66361;52.034;20.656;2023-05-10T02:18:26;100359.47;;;3.17;79.98
77299;BME280;66361;52.034;20.656;2023-05-10T02:22:31;100347.03;;;2.95;81.91
77299;BME280;66361;52.034;20.656;2023-05-10T02:26:36;100349.88;;;2.88;82.46
77299;BME280;66361;52.034;20.656;2023-05-10T02:30:41;100345.19;;;2.99;82.50
77299;BME280;66361;52.034;20.656;2023-05-10T02:34:44;100344.81;;;3.13;80.65
77299;BME280;66361;52.034;20.656;2023-05-10T02:38:50;100342.47;;;3.04;81.44
77299;BME280;66361;52.034;20.656;2023-05-10T02:42:55;100336.13;;;3.12;81.42
77299;BME280;66361;52.034;20.656;2023-05-10T02:47:00;100335.03;;;3.21;80.74
77299;BME280;66361;52.034;20.656;2023-05-10T02:51:05;100339.19;;;3.26;80.13
77299;BME280;66361;52.034;20.656;2023-05-10T02:55:13;100340.84;;;3.29;80.14
77299;BME280;66361;52.034;20.656;2023-05-10T02:59:17;100339.25;;;3.25;81.10
77299;BME280;66361;52.034;20.656;2023-05-10T03:03:22;100336.72;;;3.22;81.28
77299;BME280;66361;52.034;20.656;2023-05-10T03:07:25;100339.91;;;3.31;81.14
77299;BME280;66361;52.034;20.656;2023-05-10T03:11:39;100340.13;;;3.24;80.63
77299;BME280;66361;52.034;20.656;2023-05-10T03:15:53;100340.06;;;3.25;81.61
77299;BME280;66361;52.034;20.656;2023-05-10T03:20:08;100338.75;;;3.40;80.45
77299;BME280;66361;52.034;20.656;2023-05-10T03:24:13;100343.00;;;3.70;78.39
77299;BME280;66361;52.034;20.656;2023-05-10T03:28:20;100346.72;;;3.91;77.62
77299;BME280;66361;52.034;20.656;2023-05-10T03:32:24;100341.72;;;4.10;76.37
77299;BME280;66361;52.034;20.656;2023-05-10T03:36:28;100344.09;;;4.17;75.79
77299;BME280;66361;52.034;20.656;2023-05-10T03:40:31;100346.75;;;4.16;76.23
77299;BME280;66361;52.034;20.656;2023-05-10T03:44:35;100343.13;;;4.20;76.85
77299;BME280;66361;52.034;20.656;2023-05-10T03:48:38;100338.53;;;4.26;76.24
77299;BME280;66361;52.034;20.656;2023-05-10T03:52:41;100343.03;;;4.48;74.55
77299;BME280;66361;52.034;20.656;2023-05-10T03:56:44;100345.44;;;4.78;72.06
77299;BME280;66361;52.034;20.656;2023-05-10T04:00:50;100334.91;;;5.70;68.83
77299;BME280;66361;52.034;20.656;2023-05-10T04:04:54;100344.06;;;6.23;65.99
77299;BME280;66361;52.034;20.656;2023-05-10T04:08:57;100339.47;;;6.49;65.38
77299;BME280;66361;52.034;20.656;2023-05-10T04:13:05;100340.31;;;6.90;63.49
77299;BME280;66361;52.034;20.656;2023-05-10T04:17:10;100337.84;;;7.97;59.03
77299;BME280;66361;52.034;20.656;2023-05-10T04:21:14;100335.53;;;9.88;53.44
77299;BME280;66361;52.034;20.656;2023-05-10T04:25:17;100339.28;;;11.71;47.82
77299;BME280;66361;52.034;20.656;2023-05-10T04:29:19;100343.38;;;13.68;42.55
77299;BME280;66361;52.034;20.656;2023-05-10T04:33:24;100342.06;;;16.11;37.08
77299;BME280;66361;52.034;20.656;2023-05-10T04:37:27;100347.25;;;17.77;32.39
77299;BME280;66361;52.034;20.656;2023-05-10T04:41:30;100344.91;;;18.79;29.84
77299;BME280;66361;52.034;20.656;2023-05-10T04:45:35;100349.88;;;20.03;27.32
77299;BME280;66361;52.034;20.656;2023-05-10T04:49:40;100350.94;;;20.81;26.76
77299;BME280;66361;52.034;20.656;2023-05-10T04:53:43;100350.78;;;20.82;27.16
77299;BME280;66361;52.034;20.656;2023-05-10T04:58:02;100343.72;;;21.66;25.19
77299;BME280;66361;52.034;20.656;2023-05-10T05:02:05;100356.34;;;21.14;26.08
77299;BME280;66361;52.034;20.656;2023-05-10T05:06:09;100355.66;;;22.38;24.43
77299;BME280;66361;52.034;20.656;2023-05-10T05:10:12;100351.28;;;23.18;23.99
77299;BME280;66361;52.034;20.656;2023-05-10T05:14:16;100362.84;;;23.82;22.71
77299;BME280;66361;52.034;20.656;2023-05-10T05:18:19;100353.88;;;24.66;22.19
77299;BME280;66361;52.034;20.656;2023-05-10T05:22:23;100367.06;;;24.38;21.40
77299;BME280;66361;52.034;20.656;2023-05-10T05:26:29;100351.44;;;24.25;22.47
77299;BME280;66361;52.034;20.656;2023-05-10T05:30:32;100354.75;;;25.33;21.28
77299;BME280;66361;52.034;20.656;2023-05-10T05:34:34;100355.66;;;25.84;21.48
77299;BME280;66361;52.034;20.656;2023-05-10T05:38:39;100355.75;;;26.69;19.97
77299;BME280;66361;52.034;20.656;2023-05-10T05:42:42;100361.88;;;26.77;21.04
77299;BME280;66361;52.034;20.656;2023-05-10T05:46:45;100356.41;;;26.98;19.87
77299;BME280;66361;52.034;20.656;2023-05-10T05:50:48;100349.44;;;26.83;18.91
77299;BME280;66361;52.034;20.656;2023-05-10T05:54:53;100353.50;;;25.94;20.16
77299;BME280;66361;52.034;20.656;2023-05-10T05:58:56;100340.41;;;26.33;19.32
77299;BME280;66361;52.034;20.656;2023-05-10T06:02:59;100353.78;;;27.39;20.17
77299;BME280;66361;52.034;20.656;2023-05-10T06:07:02;100367.09;;;27.28;19.07
77299;BME280;66361;52.034;20.656;2023-05-10T06:11:06;100339.78;;;25.81;19.90
77299;BME280;66361;52.034;20.656;2023-05-10T06:15:10;100354.16;;;25.81;20.23
77299;BME280;66361;52.034;20.656;2023-05-10T06:19:13;100362.31;;;27.36;18.62
77299;BME280;66361;52.034;20.656;2023-05-10T06:23:16;100362.00;;;27.53;18.19
77299;BME280;66361;52.034;20.656;2023-05-10T06:27:21;100363.47;;;27.96;17.87
77299;BME280;66361;52.034;20.656;2023-05-10T06:31:24;100359.31;;;28.00;17.38
77299;BME280;66361;52.034;20.656;2023-05-10T06:35:28;100359.75;;;27.63;17.01
77299;BME280;66361;52.034;20.656;2023-05-10T06:39:31;100374.13;;;26.73;18.31
77299;BME280;66361;52.034;20.656;2023-05-10T06:43:35;100353.66;;;26.64;18.41
77299;BME280;66361;52.034;20.656;2023-05-10T06:47:41;100352.94;;;26.20;18.72
77299;BME280;66361;52.034;20.656;2023-05-10T06:51:44;100351.50;;;27.09;17.61
77299;BME280;66361;52.034;20.656;2023-05-10T06:55:49;100350.47;;;28.52;17.27
77299;BME280;66361;52.034;20.656;2023-05-10T06:59:53;100369.50;;;28.78;16.21
77299;BME280;66361;52.034;20.656;2023-05-10T07:03:57;100363.38;;;27.76;16.49
77299;BME280;66361;52.034;20.656;2023-05-10T07:08:00;100354.72;;;27.94;17.05
77299;BME280;66361;52.034;20.656;2023-05-10T07:12:04;100347.72;;;28.39;16.66
77299;BME280;66361;52.034;20.656;2023-05-10T07:16:11;100335.91;;;26.05;18.22
77299;BME280;66361;52.034;20.656;2023-05-10T07:20:15;100335.81;;;25.62;18.86
77299;BME280;66361;52.034;20.656;2023-05-10T07:24:18;100337.31;;;26.58;17.11
77299;BME280;66361;52.034;20.656;2023-05-10T07:28:21;100346.28;;;26.79;16.67
77299;BME280;66361;52.034;20.656;2023-05-10T07:32:27;100348.91;;;26.73;16.30
77299;BME280;66361;52.034;20.656;2023-05-10T07:36:30;100352.75;;;25.71;16.19
77299;BME280;66361;52.034;20.656;2023-05-10T07:40:34;100339.09;;;26.50;15.88
77299;BME280;66361;52.034;20.656;2023-05-10T07:44:37;100353.47;;;27.21;15.27
77299;BME280;66361;52.034;20.656;2023-05-10T07:48:42;100360.66;;;27.35;15.00
77299;BME280;66361;52.034;20.656;2023-05-10T07:52:47;100342.78;;;27.48;16.94
77299;BME280;66361;52.034;20.656;2023-05-10T07:56:51;100349.63;;;27.43;14.43
77299;BME280;66361;52.034;20.656;2023-05-10T08:00:54;100342.72;;;27.07;15.02
77299;BME280;66361;52.034;20.656;2023-05-10T08:04:59;100342.00;;;27.54;14.59
77299;BME280;66361;52.034;20.656;2023-05-10T08:09:02;100340.03;;;27.13;14.37
77299;BME280;66361;52.034;20.656;2023-05-10T08:13:05;100333.31;;;26.32;14.57
77299;BME280;66361;52.034;20.656;2023-05-10T08:17:08;100341.84;;;26.72;16.35
77299;BME280;66361;52.034;20.656;2023-05-10T08:21:12;100345.75;;;26.27;14.21
77299;BME280;66361;52.034;20.656;2023-05-10T08:25:15;100325.59;;;26.29;15.09
77299;BME280;66361;52.034;20.656;2023-05-10T08:29:19;100350.22;;;27.05;15.66
77299;BME280;66361;52.034;20.656;2023-05-10T08:33:22;100340.09;;;26.92;17.82
77299;BME280;66361;52.034;20.656;2023-05-10T08:37:29;100332.94;;;27.40;13.75
77299;BME280;66361;52.034;20.656;2023-05-10T08:41:35;100332.06;;;27.33;14.27
77299;BME280;66361;52.034;20.656;2023-05-10T08:45:40;100344.63;;;27.40;14.29
77299;BME280;66361;52.034;20.656;2023-05-10T08:49:44;100334.88;;;27.87;12.61
77299;BME280;66361;52.034;20.656;2023-05-10T08:53:51;100337.88;;;26.74;12.89
77299;BME280;66361;52.034;20.656;2023-05-10T08:57:54;100338.13;;;27.07;14.26
77299;BME280;66361;52.034;20.656;2023-05-10T09:01:58;100345.28;;;26.87;14.17
77299;BME280;66361;52.034;20.656;2023-05-10T09:06:01;100314.63;;;26.16;15.28
77299;BME280;66361;52.034;20.656;2023-05-10T09:10:09;100323.97;;;27.05;16.16
77299;BME280;66361;52.034;20.656;2023-05-10T09:14:17;100322.34;;;25.83;13.86
77299;BME280;66361;52.034;20.656;2023-05-10T09:18:21;100318.56;;;25.04;15.86
77299;BME280;66361;52.034;20.656;2023-05-10T09:22:27;100318.22;;;24.70;16.25
77299;BME280;66361;52.034;20.656;2023-05-10T09:26:31;100329.97;;;24.77;18.50
77299;BME280;66361;52.034;20.656;2023-05-10T09:30:35;100321.50;;;24.20;16.36
77299;BME280;66361;52.034;20.656;2023-05-10T09:34:38;100306.88;;;24.75;16.97
77299;BME280;66361;52.034;20.656;2023-05-10T09:38:46;100314.44;;;24.79;16.63
77299;BME280;66361;52.034;20.656;2023-05-10T09:42:56;100330.69;;;24.03;17.13
77299;BME280;66361;52.034;20.656;2023-05-10T09:46:59;100299.78;;;23.05;18.39
77299;BME280;66361;52.034;20.656;2023-05-10T09:51:02;100315.34;;;22.54;20.49
77299;BME280;66361;52.034;20.656;2023-05-10T09:55:08;100305.22;;;22.48;22.72
77299;BME280;66361;52.034;20.656;2023-05-10T09:59:18;100311.97;;;22.20;19.88
77299;BME280;66361;52.034;20.656;2023-05-10T10:03:21;100303.25;;;21.68;21.27
77299;BME280;66361;52.034;20.656;2023-05-10T10:07:26;100286.47;;;21.58;20.56
77299;BME280;66361;52.034;20.656;2023-05-10T10:11:29;100285.53;;;21.41;20.69
77299;BME280;66361;52.034;20.656;2023-05-10T10:15:34;100278.78;;;21.87;22.55
77299;BME280;66361;52.034;20.656;2023-05-10T10:19:37;100275.31;;;22.11;21.12
77299;BME280;66361;52.034;20.656;2023-05-10T10:23:41;100274.97;;;22.06;20.35
77299;BME280;66361;52.034;20.656;2023-05-10T10:27:59;100285.44;;;21.59;19.70
77299;BME280;66361;52.034;20.656;2023-05-10T10:32:17;100281.75;;;21.26;21.26
77299;BME280;66361;52.034;20.656;2023-05-10T10:36:23;100271.88;;;21.26;20.90
77299;BME280;66361;52.034;20.656;2023-05-10T10:40:30;100259.41;;;21.17;20.94
77299;BME280;66361;52.034;20.656;2023-05-10T10:44:37;100267.13;;;21.46;21.30
77299;BME280;66361;52.034;20.656;2023-05-10T10:48:47;100248.66;;;21.51;21.82
77299;BME280;66361;52.034;20.656;2023-05-10T10:52:50;100254.78;;;22.02;25.14
77299;BME280;66361;52.034;20.656;2023-05-10T10:57:12;100250.59;;;22.07;20.57
77299;BME280;66361;52.034;20.656;2023-05-10T11:01:18;100241.34;;;21.94;21.19
77299;BME280;66361;52.034;20.656;2023-05-10T11:05:37;100235.72;;;21.39;20.22
77299;BME280;66361;52.034;20.656;2023-05-10T11:09:40;100240.84;;;20.90;22.53
77299;BME280;66361;52.034;20.656;2023-05-10T11:13:44;100252.91;;;20.60;21.40
77299;BME280;66361;52.034;20.656;2023-05-10T11:17:51;100249.78;;;20.47;22.21
77299;BME280;66361;52.034;20.656;2023-05-10T11:22:14;100247.31;;;20.54;23.02
77299;BME280;66361;52.034;20.656;2023-05-10T11:26:18;100237.75;;;20.51;21.30
77299;BME280;66361;52.034;20.656;2023-05-10T11:30:24;100223.19;;;20.54;21.19
77299;BME280;66361;52.034;20.656;2023-05-10T11:34:29;100238.59;;;20.52;23.04
77299;BME280;66361;52.034;20.656;2023-05-10T11:38:36;100235.31;;;20.40;23.28
77299;BME280;66361;52.034;20.656;2023-05-10T11:42:39;100222.03;;;20.13;23.27
77299;BME280;66361;52.034;20.656;2023-05-10T11:46:42;100228.69;;;20.26;22.81
77299;BME280;66361;52.034;20.656;2023-05-10T11:50:46;100210.03;;;19.99;23.37
77299;BME280;66361;52.034;20.656;2023-05-10T11:54:52;100218.00;;;20.35;22.68
77299;BME280;66361;52.034;20.656;2023-05-10T11:58:56;100222.81;;;20.31;22.22
77299;BME280;66361;52.034;20.656;2023-05-10T12:03:00;100207.50;;;20.15;22.37
77299;BME280;66361;52.034;20.656;2023-05-10T12:07:04;100210.66;;;19.93;21.84
77299;BME280;66361;52.034;20.656;2023-05-10T12:11:09;100237.66;;;19.82;21.53
77299;BME280;66361;52.034;20.656;2023-05-10T12:15:17;100228.41;;;19.59;22.25
77299;BME280;66361;52.034;20.656;2023-05-10T12:19:21;100220.22;;;19.60;23.31
77299;BME280;66361;52.034;20.656;2023-05-10T12:23:26;100223.91;;;19.77;23.47
77299;BME280;66361;52.034;20.656;2023-05-10T12:27:33;100208.03;;;19.83;23.74
77299;BME280;66361;52.034;20.656;2023-05-10T12:31:54;100205.97;;;19.95;23.77
77299;BME280;66361;52.034;20.656;2023-05-10T12:35:59;100203.97;;;19.97;24.12
77299;BME280;66361;52.034;20.656;2023-05-10T12:40:04;100199.38;;;19.90;23.23
77299;BME280;66361;52.034;20.656;2023-05-10T12:44:13;100186.38;;;19.95;23.85
77299;BME280;66361;52.034;20.656;2023-05-10T12:48:16;100204.56;;;20.09;24.19
77299;BME280;66361;52.034;20.656;2023-05-10T12:52:19;100197.13;;;19.77;24.14
77299;BME280;66361;52.034;20.656;2023-05-10T12:56:24;100192.97;;;19.65;24.03
77299;BME280;66361;52.034;20.656;2023-05-10T13:00:28;100195.13;;;19.61;24.42
77299;BME280;66361;52.034;20.656;2023-05-10T13:04:31;100173.63;;;19.53;24.63
77299;BME280;66361;52.034;20.656;2023-05-10T13:08:34;100189.94;;;19.77;25.70
77299;BME280;66361;52.034;20.656;2023-05-10T13:12:37;100188.88;;;19.43;25.07
77299;BME280;66361;52.034;20.656;2023-05-10T13:16:43;100177.06;;;19.63;26.30
77299;BME280;66361;52.034;20.656;2023-05-10T13:20:46;100190.16;;;19.21;25.53
77299;BME280;66361;52.034;20.656;2023-05-10T13:24:51;100182.50;;;19.26;26.53
77299;BME280;66361;52.034;20.656;2023-05-10T13:28:54;100187.50;;;19.21;26.72
77299;BME280;66361;52.034;20.656;2023-05-10T13:32:59;100170.47;;;18.95;26.09
77299;BME280;66361;52.034;20.656;2023-05-10T13:37:02;100180.97;;;19.06;28.88
77299;BME280;66361;52.034;20.656;2023-05-10T13:41:06;100168.91;;;18.93;26.08
77299;BME280;66361;52.034;20.656;2023-05-10T13:45:10;100166.69;;;18.61;25.52
77299;BME280;66361;52.034;20.656;2023-05-10T13:49:16;100187.53;;;18.57;26.91
77299;BME280;66361;52.034;20.656;2023-05-10T13:53:18;100162.72;;;18.55;27.50
77299;BME280;66361;52.034;20.656;2023-05-10T13:57:22;100166.53;;;18.53;26.77
77299;BME280;66361;52.034;20.656;2023-05-10T14:01:25;100160.50;;;18.60;27.09
77299;BME280;66361;52.034;20.656;2023-05-10T14:05:30;100141.78;;;18.60;27.50
77299;BME280;66361;52.034;20.656;2023-05-10T14:09:32;100158.88;;;18.30;28.16
77299;BME280;66361;52.034;20.656;2023-05-10T14:13:35;100153.03;;;18.08;27.05
77299;BME280;66361;52.034;20.656;2023-05-10T14:17:38;100142.22;;;18.00;27.66
77299;BME280;66361;52.034;20.656;2023-05-10T14:21:42;100146.16;;;18.05;27.53
77299;BME280;66361;52.034;20.656;2023-05-10T14:25:46;100145.31;;;18.05;26.80
77299;BME280;66361;52.034;20.656;2023-05-10T14:29:49;100157.81;;;17.95;27.17
77299;BME280;66361;52.034;20.656;2023-05-10T14:33:52;100145.47;;;17.84;27.72
77299;BME280;66361;52.034;20.656;2023-05-10T14:37:56;100142.97;;;17.82;27.25
77299;BME280;66361;52.034;20.656;2023-05-10T14:42:00;100133.94;;;17.83;28.33
77299;BME280;66361;52.034;20.656;2023-05-10T14:46:04;100132.41;;;17.90;27.65
77299;BME280;66361;52.034;20.656;2023-05-10T14:50:07;100146.03;;;17.97;27.41
77299;BME280;66361;52.034;20.656;2023-05-10T14:54:13;100136.03;;;17.99;28.08
77299;BME280;66361;52.034;20.656;2023-05-10T14:58:17;100148.16;;;17.94;27.78
77299;BME280;66361;52.034;20.656;2023-05-10T15:02:19;100144.81;;;17.63;27.94
77299;BME280;66361;52.034;20.656;2023-05-10T15:06:23;100143.53;;;17.67;28.38
77299;BME280;66361;52.034;20.656;2023-05-10T15:10:30;100140.28;;;17.73;28.02
77299;BME280;66361;52.034;20.656;2023-05-10T15:14:52;100145.22;;;17.58;27.91
77299;BME280;66361;52.034;20.656;2023-05-10T15:18:55;100141.88;;;17.56;29.23
77299;BME280;66361;52.034;20.656;2023-05-10T15:22:58;100137.75;;;17.52;28.03
77299;BME280;66361;52.034;20.656;2023-05-10T15:27:01;100130.44;;;17.44;28.26
77299;BME280;66361;52.034;20.656;2023-05-10T15:31:05;100140.13;;;17.36;28.19
77299;BME280;66361;52.034;20.656;2023-05-10T15:35:08;100130.72;;;17.32;28.47
77299;BME280;66361;52.034;20.656;2023-05-10T15:39:12;100124.81;;;17.28;28.49
77299;BME280;66361;52.034;20.656;2023-05-10T15:43:15;100136.06;;;17.22;28.13
77299;BME280;66361;52.034;20.656;2023-05-10T15:47:19;100139.81;;;17.20;28.45
77299;BME280;66361;52.034;20.656;2023-05-10T15:51:24;100131.81;;;17.10;28.17
77299;BME280;66361;52.034;20.656;2023-05-10T15:55:28;100136.88;;;17.04;28.71
77299;BME280;66361;52.034;20.656;2023-05-10T15:59:32;100127.88;;;16.95;28.27
77299;BME280;66361;52.034;20.656;2023-05-10T16:03:37;100127.41;;;16.80;28.27
77299;BME280;66361;52.034;20.656;2023-05-10T16:07:41;100126.13;;;16.75;28.56
77299;BME280;66361;52.034;20.656;2023-05-10T16:11:44;100122.47;;;16.66;29.37
77299;BME280;66361;52.034;20.656;2023-05-10T16:15:47;100129.16;;;16.61;30.17
77299;BME280;66361;52.034;20.656;2023-05-10T16:19:52;100127.63;;;16.58;28.89
77299;BME280;66361;52.034;20.656;2023-05-10T16:23:55;100131.66;;;16.53;29.82
77299;BME280;66361;52.034;20.656;2023-05-10T16:27:58;100132.88;;;16.48;29.70
77299;BME280;66361;52.034;20.656;2023-05-10T16:32:02;100139.72;;;16.41;31.37
77299;BME280;66361;52.034;20.656;2023-05-10T16:36:06;100138.56;;;16.34;29.54
77299;BME280;66361;52.034;20.656;2023-05-10T16:40:10;100149.28;;;16.23;30.62
77299;BME280;66361;52.034;20.656;2023-05-10T16:44:13;100140.28;;;16.15;30.51
77299;BME280;66361;52.034;20.656;2023-05-10T16:48:21;100134.78;;;16.07;30.14
77299;BME280;66361;52.034;20.656;2023-05-10T16:52:25;100140.63;;;16.00;30.56
77299;BME280;66361;52.034;20.656;2023-05-10T16:56:29;100143.94;;;15.93;29.55
77299;BME280;66361;52.034;20.656;2023-05-10T17:00:32;100145.81;;;15.81;30.36
77299;BME280;66361;52.034;20.656;2023-05-10T17:04:35;100142.81;;;15.75;30.57
77299;BME280;66361;52.034;20.656;2023-05-10T17:08:40;100149.06;;;15.64;30.54
77299;BME280;66361;52.034;20.656;2023-05-10T17:12:44;100175.34;;;15.58;31.22
77299;BME280;66361;52.034;20.656;2023-05-10T17:16:47;100160.38;;;15.45;31.92
77299;BME280;66361;52.034;20.656;2023-05-10T17:20:57;100151.09;;;15.29;31.89
77299;BME280;66361;52.034;20.656;2023-05-10T17:25:02;100165.88;;;15.22;31.89
77299;BME280;66361;52.034;20.656;2023-05-10T17:29:06;100163.56;;;15.17;31.74
77299;BME280;66361;52.034;20.656;2023-05-10T17:33:09;100166.78;;;15.00;32.21
77299;BME280;66361;52.034;20.656;2023-05-10T17:37:14;100167.28;;;14.94;32.12
77299;BME280;66361;52.034;20.656;2023-05-10T17:41:19;100169.81;;;14.84;32.56
77299;BME280;66361;52.034;20.656;2023-05-10T17:45:22;100166.81;;;14.67;33.54
77299;BME280;66361;52.034;20.656;2023-05-10T17:49:28;100179.00;;;14.58;33.37
77299;BME280;66361;52.034;20.656;2023-05-10T17:53:32;100183.84;;;14.42;33.82
77299;BME280;66361;52.034;20.656;2023-05-10T17:57:36;100186.25;;;14.23;34.43
77299;BME280;66361;52.034;20.656;2023-05-10T18:01:39;100190.47;;;14.01;34.91
77299;BME280;66361;52.034;20.656;2023-05-10T18:05:48;100187.44;;;13.84;35.85
77299;BME280;66361;52.034;20.656;2023-05-10T18:09:51;100195.22;;;13.63;36.74
77299;BME280;66361;52.034;20.656;2023-05-10T18:13:56;100197.75;;;13.41;37.45
77299;BME280;66361;52.034;20.656;2023-05-10T18:18:02;100199.16;;;13.10;38.09
77299;BME280;66361;52.034;20.656;2023-05-10T18:22:06;100189.88;;;12.92;38.85
77299;BME280;66361;52.034;20.656;2023-05-10T18:26:11;100210.13;;;12.68;39.13
77299;BME280;66361;52.034;20.656;2023-05-10T18:30:16;100215.63;;;12.52;39.85
77299;BME280;66361;52.034;20.656;2023-05-10T18:34:20;100211.84;;;12.43;39.85
77299;BME280;66361;52.034;20.656;2023-05-10T18:38:23;100222.84;;;12.25;40.66
77299;BME280;66361;52.034;20.656;2023-05-10T18:42:26;100222.06;;;12.10;41.39
77299;BME280;66361;52.034;20.656;2023-05-10T18:46:32;100228.50;;;11.93;42.47
77299;BME280;66361;52.034;20.656;2023-05-10T18:50:36;100224.81;;;11.83;41.49
77299;BME280;66361;52.034;20.656;2023-05-10T18:54:40;100225.63;;;11.84;41.53
77299;BME280;66361;52.034;20.656;2023-05-10T18:58:43;100232.03;;;11.67;41.73
77299;BME280;66361;52.034;20.656;2023-05-10T19:02:48;100239.72;;;11.57;41.49
77299;BME280;66361;52.034;20.656;2023-05-10T19:06:51;100241.34;;;11.60;42.50
77299;BME280;66361;52.034;20.656;2023-05-10T19:10:54;100239.31;;;11.37;43.38
77299;BME280;66361;52.034;20.656;2023-05-10T19:14:57;100242.75;;;11.10;45.12
77299;BME280;66361;52.034;20.656;2023-05-10T19:19:01;100249.03;;;10.81;45.93
77299;BME280;66361;52.034;20.656;2023-05-10T19:23:04;100244.41;;;10.70;46.97
77299;BME280;66361;52.034;20.656;2023-05-10T19:27:10;100244.22;;;10.59;45.58
77299;BME280;66361;52.034;20.656;2023-05-10T19:31:15;100246.75;;;10.61;45.20
77299;BME280;66361;52.034;20.656;2023-05-10T19:35:19;100249.13;;;10.65;44.68
77299;BME280;66361;52.034;20.656;2023-05-10T19:39:23;100252.81;;;10.63;45.40
77299;BME280;66361;52.034;20.656;2023-05-10T19:43:26;100257.31;;;10.61;45.13
77299;BME280;66361;52.034;20.656;2023-05-10T19:47:31;100252.63;;;10.52;45.32
77299;BME280;66361;52.034;20.656;2023-05-10T19:51:36;100256.06;;;10.52;45.50
77299;BME280;66361;52.034;20.656;2023-05-10T19:55:39;100257.97;;;10.36;46.47
77299;BME280;66361;52.034;20.656;2023-05-10T19:59:42;100262.38;;;10.21;46.65
77299;BME280;66361;52.034;20.656;2023-05-10T20:03:45;100256.91;;;10.25;46.95
77299;BME280;66361;52.034;20.656;2023-05-10T20:07:50;100266.88;;;10.19;46.38
77299;BME280;66361;52.034;20.656;2023-05-10T20:11:54;100268.50;;;10.22;46.31
77299;BME280;66361;52.034;20.656;2023-05-10T20:15:57;100269.78;;;10.15;46.39
77299;BME280;66361;52.034;20.656;2023-05-10T20:20:02;100266.31;;;10.14;46.05
77299;BME280;66361;52.034;20.656;2023-05-10T20:24:07;100256.69;;;10.13;46.70
77299;BME280;66361;52.034;20.656;2023-05-10T20:28:10;100264.63;;;10.28;45.16
77299;BME280;66361;52.034;20.656;2023-05-10T20:32:16;100260.50;;;10.38;44.83
77299;BME280;66361;52.034;20.656;2023-05-10T20:36:24;100265.41;;;10.30;45.46
77299;BME280;66361;52.034;20.656;2023-05-10T20:40:30;100271.81;;;10.26;45.25
77299;BME280;66361;52.034;20.656;2023-05-10T20:44:33;100270.28;;;10.21;45.42
77299;BME280;66361;52.034;20.656;2023-05-10T20:48:36;100266.31;;;10.14;45.75
77299;BME280;66361;52.034;20.656;2023-05-10T20:52:40;100279.66;;;10.11;46.10
77299;BME280;66361;52.034;20.656;2023-05-10T20:56:44;100279.38;;;10.02;46.60
77299;BME280;66361;52.034;20.656;2023-05-10T21:00:47;100273.88;;;9.91;47.08
77299;BME280;66361;52.034;20.656;2023-05-10T21:04:52;100276.88;;;9.85;47.17
77299;BME280;66361;52.034;20.656;2023-05-10T21:08:58;100275.94;;;9.70;47.29
77299;BME280;66361;52.034;20.656;2023-05-10T21:13:05;100282.34;;;9.66;47.67